createdAt,value
2023-04-13T00:01:19.658Z,3.70
2023-04-13T00:04:09.944Z,3.57
2023-04-13T00:06:58.885Z,4.47
2023-04-13T00:09:47.369Z,4.40
2023-04-13T00:12:34.853Z,4.10
2023-04-13T00:15:22.452Z,4.40
2023-04-13T00:18:10.505Z,4.37
2023-04-13T00:21:00.034Z,4.93
2023-04-13T00:23:47.269Z,4.37
2023-04-13T00:26:34.941Z,4.53
2023-04-13T00:29:22.127Z,4.80
2023-04-13T00:32:09.523Z,4.93
2023-04-13T00:34:57.033Z,4.40
2023-04-13T00:37:47.080Z,4.80
2023-04-13T00:40:37.785Z,4.73
2023-04-13T00:43:25.302Z,5.17
2023-04-13T00:46:12.861Z,5.23
2023-04-13T00:49:01.683Z,5.00
2023-04-13T00:51:48.939Z,4.77
2023-04-13T00:54:37.497Z,5.23
2023-04-13T00:57:27.169Z,5.30
2023-04-13T01:00:17.139Z,5.17
2023-04-13T01:03:04.565Z,5.57
2023-04-13T01:05:57.430Z,5.80
2023-04-13T01:08:51.189Z,5.50
2023-04-13T01:11:46.553Z,5.67
2023-04-13T01:14:38.654Z,5.93
2023-04-13T01:17:34.697Z,5.73
2023-04-13T01:20:23.229Z,6.27
2023-04-13T01:23:17.185Z,5.83
2023-04-13T01:26:08.782Z,5.67
2023-04-13T01:28:58.193Z,6.13
2023-04-13T01:31:46.209Z,5.47
2023-04-13T01:34:34.123Z,6.27
2023-04-13T01:37:22.301Z,6.30
2023-04-13T01:40:12.651Z,5.80
2023-04-13T01:43:04.736Z,5.90
2023-04-13T01:46:08.160Z,5.90
2023-04-13T01:49:01.890Z,6.20
2023-04-13T01:51:58.486Z,5.87
2023-04-13T01:54:52.140Z,5.73
2023-04-13T01:57:45.831Z,5.87
2023-04-13T02:00:36.282Z,5.67
2023-04-13T02:03:28.778Z,5.03
2023-04-13T02:06:16.208Z,5.50
2023-04-13T02:09:06.329Z,5.67
2023-04-13T02:11:54.086Z,6.13
2023-04-13T02:14:41.534Z,5.17
2023-04-13T02:17:29.440Z,5.70
2023-04-13T02:20:18.755Z,5.47
2023-04-13T02:23:08.171Z,5.33
2023-04-13T02:25:56.849Z,5.13
2023-04-13T02:28:44.474Z,5.30
2023-04-13T02:31:32.308Z,5.87
2023-04-13T02:34:20.307Z,5.60
2023-04-13T02:37:09.392Z,5.97
2023-04-13T02:39:56.952Z,5.77
2023-04-13T02:42:44.353Z,6.03
2023-04-13T02:45:32.973Z,5.53
2023-04-13T02:48:21.772Z,5.97
2023-04-13T02:51:09.840Z,5.60
2023-04-13T02:54:03.571Z,5.63
2023-04-13T02:56:55.980Z,5.73
2023-04-13T02:59:43.649Z,5.30
2023-04-13T03:02:31.780Z,5.47
2023-04-13T03:05:19.903Z,5.30
2023-04-13T03:08:10.217Z,5.57
2023-04-13T03:11:03.914Z,5.63
2023-04-13T03:13:54.144Z,5.37
2023-04-13T03:16:41.637Z,5.03
2023-04-13T03:19:31.099Z,5.03
2023-04-13T03:22:19.762Z,4.60
2023-04-13T03:25:08.408Z,4.57
2023-04-13T03:28:00.142Z,4.20
2023-04-13T03:30:51.408Z,4.70
2023-04-13T03:33:39.222Z,3.83
2023-04-13T03:36:28.576Z,4.00
2023-04-13T03:39:16.202Z,4.13
2023-04-13T03:42:04.274Z,4.40
2023-04-13T03:44:52.745Z,4.30
2023-04-13T03:47:40.435Z,4.20
2023-04-13T03:50:29.580Z,4.20
2023-04-13T03:53:17.371Z,4.17
2023-04-13T03:56:07.358Z,3.93
2023-04-13T03:58:55.580Z,3.93
2023-04-13T04:01:47.930Z,4.30
2023-04-13T04:04:35.737Z,3.93
2023-04-13T04:07:23.629Z,4.23
2023-04-13T04:10:12.145Z,4.07
2023-04-13T04:12:59.543Z,4.70
2023-04-13T04:15:48.497Z,4.53
2023-04-13T04:18:37.320Z,4.97
2023-04-13T04:21:34.292Z,4.40
2023-04-13T04:24:27.516Z,4.90
2023-04-13T04:27:17.472Z,4.73
2023-04-13T04:30:10.786Z,4.30
2023-04-13T04:32:58.954Z,4.83
2023-04-13T04:35:54.011Z,4.83
2023-04-13T04:38:47.607Z,5.10
2023-04-13T04:41:37.720Z,4.83
2023-04-13T04:44:30.752Z,5.70
2023-04-13T04:47:21.540Z,5.60
2023-04-13T04:50:27.012Z,5.43
2023-04-13T04:53:23.297Z,5.00
2023-04-13T04:56:11.065Z,5.57
2023-04-13T04:59:10.374Z,5.93
2023-04-13T05:02:07.998Z,5.90
2023-04-13T05:04:55.951Z,5.43
2023-04-13T05:07:46.072Z,5.40
2023-04-13T05:10:35.627Z,6.03
2023-04-13T05:13:23.247Z,5.60
2023-04-13T05:16:31.801Z,5.83
2023-04-13T05:19:25.236Z,5.40
2023-04-13T05:22:17.097Z,5.80
2023-04-13T05:25:13.272Z,5.67
2023-04-13T05:28:02.232Z,5.30
2023-04-13T05:30:49.711Z,5.10
2023-04-13T05:33:37.625Z,5.33
2023-04-13T05:36:24.925Z,5.33
2023-04-13T05:39:12.267Z,5.33
2023-04-13T05:41:59.663Z,5.37
2023-04-13T05:44:50.550Z,5.23
2023-04-13T05:47:40.030Z,5.47
2023-04-13T05:50:32.508Z,5.20
2023-04-13T05:53:20.065Z,5.67
2023-04-13T05:56:11.600Z,6.10
2023-04-13T05:59:00.964Z,5.47
2023-04-13T06:01:52.307Z,5.17
2023-04-13T06:04:39.910Z,6.33
2023-04-13T06:07:28.058Z,5.23
2023-04-13T06:10:16.839Z,5.53
2023-04-13T06:13:04.020Z,6.07
2023-04-13T06:15:51.765Z,5.30
2023-04-13T06:18:40.520Z,5.90
2023-04-13T06:21:30.069Z,5.50
2023-04-13T06:24:18.017Z,5.70
2023-04-13T06:27:06.205Z,5.40
2023-04-13T06:29:53.660Z,5.33
2023-04-13T06:32:41.170Z,5.03
2023-04-13T06:35:30.808Z,5.77
2023-04-13T06:38:18.195Z,9.10
2023-04-13T06:41:14.753Z,9.47
2023-04-13T06:44:05.559Z,5.33
2023-04-13T06:46:57.637Z,4.60
2023-04-13T06:49:46.548Z,4.80
2023-04-13T06:52:35.664Z,4.20
2023-04-13T06:55:23.696Z,4.57
2023-04-13T06:58:11.378Z,3.90
2023-04-13T07:00:58.947Z,3.60
2023-04-13T07:03:49.838Z,3.20
2023-04-13T07:06:37.713Z,3.03
2023-04-13T07:09:27.381Z,3.10
2023-04-13T07:12:14.877Z,2.90
2023-04-13T07:15:04.042Z,3.27
2023-04-13T07:17:52.445Z,3.00
2023-04-13T07:20:40.013Z,2.97
2023-04-13T07:23:28.124Z,3.03
2023-04-13T07:26:18.217Z,2.90
2023-04-13T07:29:12.104Z,2.90
2023-04-13T07:32:02.242Z,2.57
2023-04-13T07:34:52.004Z,2.70
2023-04-13T07:37:39.236Z,2.40
2023-04-13T07:40:29.161Z,2.50
2023-04-13T07:43:20.998Z,2.70
2023-04-13T07:46:11.727Z,2.87
2023-04-13T07:49:01.377Z,2.50
2023-04-13T07:51:54.172Z,2.77
2023-04-13T07:54:42.471Z,2.80
2023-04-13T07:57:31.194Z,2.23
2023-04-13T08:00:24.281Z,2.00
2023-04-13T08:03:17.840Z,2.53
2023-04-13T08:06:10.411Z,2.10
2023-04-13T08:08:57.970Z,2.20
2023-04-13T08:11:45.266Z,1.90
2023-04-13T08:14:32.785Z,2.03
2023-04-13T08:17:22.314Z,2.20
2023-04-13T08:20:12.694Z,1.60
2023-04-13T08:23:01.128Z,1.80
2023-04-13T08:25:48.264Z,1.90
2023-04-13T08:28:36.658Z,1.67
2023-04-13T08:31:24.351Z,1.70
2023-04-13T08:34:17.603Z,2.03
2023-04-13T08:37:06.747Z,1.43
2023-04-13T08:40:00.392Z,1.70
2023-04-13T08:42:48.457Z,1.40
2023-04-13T08:45:36.895Z,1.33
2023-04-13T08:48:24.612Z,1.20
2023-04-13T08:51:16.008Z,1.60
2023-04-13T08:54:03.675Z,1.00
2023-04-13T08:56:57.725Z,1.40
2023-04-13T08:59:48.949Z,1.30
2023-04-13T09:02:46.658Z,1.00
2023-04-13T09:05:53.621Z,1.27
2023-04-13T09:08:46.167Z,1.00
2023-04-13T09:11:34.455Z,1.10
2023-04-13T09:14:24.007Z,0.77
2023-04-13T09:17:25.655Z,1.10
2023-04-13T09:20:18.110Z,0.80
2023-04-13T09:23:15.871Z,1.05
2023-04-13T09:26:09.476Z,1.00
2023-04-13T09:28:58.255Z,1.38
2023-04-13T09:31:46.624Z,1.00
2023-04-13T09:34:33.732Z,0.87
2023-04-13T09:37:21.214Z,1.20
2023-04-13T09:40:10.673Z,0.93
2023-04-13T09:43:00.726Z,1.00
2023-04-13T09:45:48.347Z,1.08
2023-04-13T09:48:35.888Z,1.00
2023-04-13T09:51:24.042Z,0.90
2023-04-13T09:54:12.233Z,1.00
2023-04-13T09:56:59.773Z,0.90
2023-04-13T09:59:48.466Z,0.90
2023-04-13T10:02:37.150Z,1.02
2023-04-13T10:05:28.784Z,0.77
2023-04-13T10:08:21.825Z,1.10
2023-04-13T10:11:15.600Z,1.00
2023-04-13T10:14:09.167Z,0.95
2023-04-13T10:17:16.870Z,1.20
2023-04-13T10:20:13.711Z,0.90
2023-04-13T10:23:01.162Z,1.10
2023-04-13T10:25:52.769Z,0.80
2023-04-13T10:28:43.973Z,0.90
2023-04-13T10:31:39.814Z,0.90
2023-04-13T10:34:30.568Z,0.90
2023-04-13T10:37:19.433Z,0.85
2023-04-13T10:40:10.168Z,1.00
2023-04-13T10:42:57.379Z,0.73
2023-04-13T10:45:44.945Z,0.98
2023-04-13T10:48:32.366Z,1.00
2023-04-13T10:51:20.659Z,1.05
2023-04-13T10:54:09.535Z,1.00
2023-04-13T10:56:58.257Z,0.93
2023-04-13T10:59:58.091Z,0.95
2023-04-13T11:02:47.114Z,0.80
2023-04-13T11:05:34.392Z,0.98
2023-04-13T11:08:24.297Z,0.90
